Guilin Liangjiang International Airport
ZGKL : now visible

Airfield :











YOU CAN JOIN US ON...

 
LOGIN :

Register | Disclaimer

   EN    FR    IT 

 









Legend :    VFR   Marginal VFR   IFR   Intensive IFR   Very Intensive IFR
Visi :
Ceiling :
>= 8 km
>= 3000ft
5 to 8 km
1000 to 3000 ft
1500m to 5 km
500 to 1000 ft
800 to 1500m
200 to 500 ft
< 800m
< 200 ft
Symbols :   Thunderstorms  Fog  Heavy snow  Heavy precipitations  Wind > 20 kt






- Airport Elevation : 570 ft
- IATA code : KWL


ZGKL - Guilin Liangjiang International

CURRENT METAR :
  • 231400Z 32002MPS 9999 FEW033 BKN073 22/20 Q1010 NOSIG

EXPIRED METARs :
  • 231300Z 02002MPS 340V040 9999 SCT033 BKN073 24/19 Q1010 NOSIG
  • 231200Z 35001MPS 9999 SCT036 BKN066 24/20 Q1009 NOSIG
  • 231100Z 34002MPS 9999 FEW036 25/19 Q1009 NOSIG
  • 231000Z 01004MPS 9999 SCT030 27/19 Q1008 NOSIG

TAF TAF ZGKL
Valid from the 23 at 12:00 until the 24 at 12:00 UTC


230906Z 2312/2412 05003MPS 5000 BR FEW026 BKN060 TX28/2407Z TN19/2322Z
ZGZU FIR / Asia



MET'MAP, your aeronautical weather chart ! - Copyright ORBIFLY December 2007 - Disclaimer

ORBIFLY MET'MAP TEAM :

Programming & Development : Alexandra Zaïnal
Original concept : Baudouin d'Aumeries
Technical & hardware support : Manuel Goepfert
Assistance : Marc-Olivier Méhu




SOURCES & CREDITS :

   NOAA       Earth
Advisory